createdAt,value
2019-05-26T00:00:00.096Z,990.78
2019-05-26T00:01:00.023Z,990.78
2019-05-26T00:01:59.925Z,990.74
2019-05-26T00:02:59.843Z,990.73
2019-05-26T00:03:59.731Z,990.76
2019-05-26T00:04:59.648Z,990.73
2019-05-26T00:05:59.556Z,990.73
2019-05-26T00:06:59.460Z,990.74
2019-05-26T00:07:59.374Z,990.73
2019-05-26T00:08:59.299Z,990.71
2019-05-26T00:09:59.192Z,990.68
2019-05-26T00:10:59.102Z,990.68
2019-05-26T00:11:59.009Z,990.66
2019-05-26T00:12:58.926Z,990.66
2019-05-26T00:13:58.846Z,990.67
2019-05-26T00:14:58.751Z,990.66
2019-05-26T00:15:58.656Z,990.60
2019-05-26T00:16:58.553Z,990.58
2019-05-26T00:17:58.455Z,990.64
2019-05-26T00:18:58.364Z,990.58
2019-05-26T00:19:58.277Z,990.56
2019-05-26T00:20:58.195Z,990.52
2019-05-26T00:21:58.103Z,990.54
2019-05-26T00:22:58.010Z,990.52
2019-05-26T00:23:57.925Z,990.53
2019-05-26T00:24:57.829Z,990.51
2019-05-26T00:25:57.756Z,990.53
2019-05-26T00:26:57.652Z,990.59
2019-05-26T00:27:57.552Z,990.55
2019-05-26T00:28:57.462Z,990.51
2019-05-26T00:29:57.374Z,990.52
2019-05-26T00:30:57.281Z,990.50
2019-05-26T00:31:57.193Z,990.50
2019-05-26T00:32:57.114Z,990.54
2019-05-26T00:33:57.024Z,990.48
2019-05-26T00:34:56.921Z,990.50
2019-05-26T00:35:56.848Z,990.48
2019-05-26T00:36:56.735Z,990.52
2019-05-26T00:37:56.653Z,990.45
2019-05-26T00:38:56.580Z,990.42
2019-05-26T00:39:56.485Z,990.44
2019-05-26T00:40:56.388Z,990.47
2019-05-26T00:41:56.299Z,990.41
2019-05-26T00:42:56.201Z,990.40
2019-05-26T00:43:56.109Z,990.43
2019-05-26T00:44:56.020Z,990.40
2019-05-26T00:45:55.932Z,990.42
2019-05-26T00:46:55.828Z,990.40
2019-05-26T00:47:55.740Z,990.37
2019-05-26T00:48:55.660Z,990.37
2019-05-26T00:49:55.558Z,990.31
2019-05-26T00:50:55.484Z,990.31
2019-05-26T00:51:55.373Z,990.32
2019-05-26T00:52:56.623Z,990.29
2019-05-26T00:53:55.202Z,990.31
2019-05-26T00:54:55.194Z,990.33
2019-05-26T00:55:55.027Z,990.30
2019-05-26T00:56:54.940Z,990.30
2019-05-26T00:57:54.844Z,990.28
2019-05-26T00:58:54.738Z,990.23
2019-05-26T00:59:54.676Z,990.21
2019-05-26T01:00:54.588Z,990.22
2019-05-26T01:01:54.474Z,990.24
2019-05-26T01:02:54.380Z,990.23
2019-05-26T01:03:54.294Z,990.28
2019-05-26T01:04:54.192Z,990.27
2019-05-26T01:05:54.133Z,990.22
2019-05-26T01:06:54.019Z,990.25
2019-05-26T01:08:05.900Z,990.24
2019-05-26T01:08:53.830Z,990.25
2019-05-26T01:09:53.742Z,990.25
2019-05-26T01:10:53.654Z,990.27
2019-05-26T01:11:53.585Z,990.27
2019-05-26T01:12:53.472Z,990.29
2019-05-26T01:13:53.413Z,990.31
2019-05-26T01:14:53.294Z,990.32
2019-05-26T01:15:53.199Z,990.31
2019-05-26T01:16:55.803Z,990.31
2019-05-26T01:17:53.024Z,990.31
2019-05-26T01:18:52.929Z,990.25
2019-05-26T01:19:52.828Z,990.30
2019-05-26T01:20:52.742Z,990.25
2019-05-26T01:21:52.662Z,990.26
2019-05-26T01:22:53.921Z,990.26
2019-05-26T01:23:52.470Z,990.25
2019-05-26T01:24:52.387Z,990.26
2019-05-26T01:25:52.285Z,990.27
2019-05-26T01:26:52.203Z,990.24
2019-05-26T01:27:52.107Z,990.21
2019-05-26T01:28:52.023Z,990.25
2019-05-26T01:29:51.922Z,990.24
2019-05-26T01:30:51.839Z,990.20
2019-05-26T01:31:51.743Z,990.25
2019-05-26T01:32:51.653Z,990.26
2019-05-26T01:33:51.557Z,990.23
2019-05-26T01:34:51.472Z,990.24
2019-05-26T01:35:51.385Z,990.19
2019-05-26T01:36:51.293Z,990.18
2019-05-26T01:37:51.191Z,990.18
2019-05-26T01:38:51.117Z,990.19
2019-05-26T01:39:51.027Z,990.20
2019-05-26T01:40:50.921Z,990.16
2019-05-26T01:41:50.829Z,990.16
2019-05-26T01:42:50.744Z,990.13
2019-05-26T01:43:50.653Z,990.13
2019-05-26T01:44:50.567Z,990.14
2019-05-26T01:45:50.468Z,990.14
2019-05-26T01:46:50.384Z,990.20
2019-05-26T01:47:50.287Z,990.15
2019-05-26T01:48:50.191Z,990.18
2019-05-26T01:49:50.108Z,990.15
2019-05-26T01:50:50.011Z,990.14
2019-05-26T01:51:49.919Z,990.17
2019-05-26T01:52:49.836Z,990.14
2019-05-26T01:53:49.739Z,990.13
2019-05-26T01:54:49.647Z,990.12
2019-05-26T01:55:49.566Z,990.10
2019-05-26T01:56:49.470Z,990.11
2019-05-26T01:57:49.377Z,990.09
2019-05-26T01:58:49.356Z,990.11
2019-05-26T01:59:49.197Z,990.11
2019-05-26T02:00:49.131Z,990.09
2019-05-26T02:01:49.030Z,990.08
2019-05-26T02:02:48.925Z,990.05
2019-05-26T02:03:48.836Z,990.02
2019-05-26T02:04:48.735Z,990.03
2019-05-26T02:05:48.653Z,989.99
2019-05-26T02:06:48.551Z,990.04
2019-05-26T02:07:48.484Z,990.01
2019-05-26T02:08:48.374Z,990.00
2019-05-26T02:09:48.280Z,990.00
2019-05-26T02:10:48.206Z,989.99
2019-05-26T02:11:48.107Z,990.00
2019-05-26T02:12:48.030Z,989.99
2019-05-26T02:13:47.930Z,989.98
2019-05-26T02:14:47.829Z,989.99
2019-05-26T02:15:47.742Z,989.98
2019-05-26T02:16:47.641Z,989.96
2019-05-26T02:17:47.555Z,989.99
2019-05-26T02:18:47.470Z,989.97
2019-05-26T02:19:47.370Z,989.96
2019-05-26T02:20:47.284Z,989.93
2019-05-26T02:21:47.202Z,989.90
2019-05-26T02:22:47.096Z,989.97
2019-05-26T02:23:47.006Z,989.88
2019-05-26T02:24:46.920Z,989.91
2019-05-26T02:25:46.830Z,989.90
2019-05-26T02:26:46.728Z,989.92
2019-05-26T02:27:46.643Z,989.88
2019-05-26T02:28:46.563Z,989.88
2019-05-26T02:29:46.464Z,989.89
2019-05-26T02:30:46.371Z,989.85
2019-05-26T02:31:46.287Z,989.88
2019-05-26T02:32:46.185Z,989.87
2019-05-26T02:33:46.111Z,989.83
2019-05-26T02:34:46.013Z,989.87
2019-05-26T02:35:45.929Z,989.83
2019-05-26T02:36:45.831Z,989.84
2019-05-26T02:37:45.736Z,989.86
2019-05-26T02:39:01.184Z,989.83
2019-05-26T02:39:46.112Z,989.79
2019-05-26T02:40:45.465Z,989.80
2019-05-26T02:41:45.367Z,989.81
2019-05-26T02:42:45.278Z,989.77
2019-05-26T02:43:45.189Z,989.79
2019-05-26T02:44:45.090Z,989.73
2019-05-26T02:45:45.004Z,989.72
2019-05-26T02:46:44.916Z,989.76
2019-05-26T02:47:44.819Z,989.77
2019-05-26T02:48:44.732Z,989.78
2019-05-26T02:49:44.642Z,989.74
2019-05-26T02:50:44.550Z,989.77
2019-05-26T02:51:44.463Z,989.75
2019-05-26T02:52:44.386Z,989.78
2019-05-26T02:53:44.277Z,989.75
2019-05-26T02:54:44.202Z,989.80
2019-05-26T02:55:44.166Z,989.79
2019-05-26T02:56:44.003Z,989.76
2019-05-26T02:57:43.915Z,989.81
2019-05-26T02:58:43.836Z,989.81
2019-05-26T02:59:43.729Z,989.78
2019-05-26T03:00:43.645Z,989.86
2019-05-26T03:02:01.398Z,989.82
2019-05-26T03:02:43.466Z,989.81
2019-05-26T03:03:43.368Z,989.81
2019-05-26T03:04:43.283Z,989.79
2019-05-26T03:05:43.192Z,989.78
2019-05-26T03:06:43.096Z,989.77
2019-05-26T03:07:43.076Z,989.81
2019-05-26T03:08:42.906Z,989.75
2019-05-26T03:09:42.820Z,989.75
2019-05-26T03:10:42.741Z,989.71
2019-05-26T03:11:42.645Z,989.67
2019-05-26T03:12:42.558Z,989.72
2019-05-26T03:13:42.461Z,989.73
2019-05-26T03:14:42.381Z,989.70
2019-05-26T03:15:42.281Z,989.73
2019-05-26T03:16:42.187Z,989.68
2019-05-26T03:17:42.131Z,989.75
2019-05-26T03:18:42.013Z,989.67
2019-05-26T03:19:41.944Z,989.70
2019-05-26T03:20:41.825Z,989.67
2019-05-26T03:21:41.742Z,989.66
2019-05-26T03:22:41.640Z,989.64
2019-05-26T03:23:41.557Z,989.63
2019-05-26T03:24:41.469Z,989.60
2019-05-26T03:25:41.372Z,989.60
2019-05-26T03:26:41.288Z,989.59
2019-05-26T03:27:41.198Z,989.57
2019-05-26T03:28:41.095Z,989.61
2019-05-26T03:29:41.013Z,989.57
2019-05-26T03:30:40.917Z,989.57
2019-05-26T03:31:40.835Z,989.60
2019-05-26T03:32:40.766Z,989.57
2019-05-26T03:33:40.678Z,989.56
2019-05-26T03:34:40.567Z,989.53
2019-05-26T03:35:40.473Z,989.56
2019-05-26T03:36:40.370Z,989.55
2019-05-26T03:37:40.282Z,989.55
2019-05-26T03:38:40.192Z,989.55
2019-05-26T03:39:45.368Z,989.60
2019-05-26T03:40:40.019Z,989.57
2019-05-26T03:41:39.923Z,989.56
2019-05-26T03:42:39.862Z,989.59
2019-05-26T03:43:39.746Z,989.60
2019-05-26T03:44:39.650Z,989.64
2019-05-26T03:45:39.565Z,989.57
2019-05-26T03:46:39.469Z,989.61
2019-05-26T03:47:39.391Z,989.61
2019-05-26T03:48:39.291Z,989.59
2019-05-26T03:49:39.201Z,989.59
2019-05-26T03:50:39.127Z,989.57
2019-05-26T03:51:39.023Z,989.55
2019-05-26T03:52:38.933Z,989.56
2019-05-26T03:53:38.862Z,989.55
2019-05-26T03:54:38.767Z,989.57
2019-05-26T03:55:38.659Z,989.58
2019-05-26T03:56:38.577Z,989.59
2019-05-26T03:57:38.494Z,989.57
2019-05-26T03:58:38.398Z,989.59
2019-05-26T03:59:38.297Z,989.58
2019-05-26T04:00:38.211Z,989.58
2019-05-26T04:01:38.126Z,989.54
2019-05-26T04:02:38.024Z,989.54
2019-05-26T04:03:37.940Z,989.46
2019-05-26T04:04:37.864Z,989.52
2019-05-26T04:05:37.762Z,989.45
2019-05-26T04:06:37.669Z,989.45
2019-05-26T04:07:37.586Z,989.45
2019-05-26T04:08:37.561Z,989.45
2019-05-26T04:09:37.396Z,989.40
2019-05-26T04:10:37.328Z,989.39
2019-05-26T04:11:37.224Z,989.43
2019-05-26T04:12:37.151Z,989.46
2019-05-26T04:13:37.033Z,989.38
2019-05-26T04:14:36.950Z,989.42
2019-05-26T04:15:36.867Z,989.40
2019-05-26T04:16:36.774Z,989.40
2019-05-26T04:17:36.684Z,989.40
2019-05-26T04:18:36.593Z,989.44
2019-05-26T04:19:36.506Z,989.39
2019-05-26T04:20:36.430Z,989.41
2019-05-26T04:21:36.319Z,989.37
2019-05-26T04:22:36.242Z,989.39
2019-05-26T04:23:36.160Z,989.43
2019-05-26T04:24:36.075Z,989.38
2019-05-26T04:25:35.965Z,989.36
2019-05-26T04:26:35.875Z,989.38
2019-05-26T04:27:35.804Z,989.34
2019-05-26T04:28:35.693Z,989.39
2019-05-26T04:29:35.602Z,989.37
2019-05-26T04:30:35.519Z,989.39
2019-05-26T04:31:35.432Z,989.37
2019-05-26T04:32:35.358Z,989.37
2019-05-26T04:33:35.258Z,989.38
2019-05-26T04:34:35.165Z,989.41
2019-05-26T04:35:35.086Z,989.39
2019-05-26T04:36:34.982Z,989.35
2019-05-26T04:37:34.891Z,989.38
2019-05-26T04:38:34.804Z,989.38
2019-05-26T04:39:34.735Z,989.42
2019-05-26T04:40:34.624Z,989.42
2019-05-26T04:41:34.558Z,989.38
2019-05-26T04:42:34.448Z,989.41
2019-05-26T04:43:34.362Z,989.42
2019-05-26T04:44:34.274Z,989.42
2019-05-26T04:45:34.184Z,989.43
2019-05-26T04:46:34.109Z,989.42
2019-05-26T04:47:34.016Z,989.38
2019-05-26T04:48:33.913Z,989.42
2019-05-26T04:49:37.403Z,989.38
2019-05-26T04:50:33.745Z,989.42
2019-05-26T04:51:33.686Z,989.41
2019-05-26T04:52:33.573Z,989.43
2019-05-26T04:53:33.465Z,989.42
2019-05-26T04:54:33.377Z,989.37
2019-05-26T04:55:33.291Z,989.35
2019-05-26T04:56:33.207Z,989.35
2019-05-26T04:57:33.118Z,989.36
2019-05-26T04:58:33.021Z,989.38
2019-05-26T04:59:32.928Z,989.32
2019-05-26T05:00:32.848Z,989.36
2019-05-26T05:01:32.776Z,989.31
2019-05-26T05:02:32.664Z,989.35
2019-05-26T05:03:32.595Z,989.35
2019-05-26T05:04:32.504Z,989.34
2019-05-26T05:05:32.423Z,989.32
2019-05-26T05:06:32.314Z,989.36
2019-05-26T05:07:32.239Z,989.34
2019-05-26T05:08:32.138Z,989.36
2019-05-26T05:09:32.047Z,989.41
2019-05-26T05:10:41.810Z,989.34
2019-05-26T05:11:31.874Z,989.32
2019-05-26T05:12:31.778Z,989.41
2019-05-26T05:13:31.703Z,989.34
2019-05-26T05:14:31.600Z,989.34
2019-05-26T05:15:31.508Z,989.32
2019-05-26T05:16:31.435Z,989.33
2019-05-26T05:17:31.336Z,989.32
2019-05-26T05:18:31.270Z,989.28
2019-05-26T05:19:31.161Z,989.29
2019-05-26T05:20:31.072Z,989.34
2019-05-26T05:21:30.980Z,989.32
2019-05-26T05:22:30.892Z,989.31
2019-05-26T05:23:30.819Z,989.29
2019-05-26T05:24:30.712Z,989.26
2019-05-26T05:25:30.639Z,989.25
2019-05-26T05:26:30.542Z,989.33
2019-05-26T05:27:30.453Z,989.25
2019-05-26T05:28:30.368Z,989.25
2019-05-26T05:29:30.273Z,989.24
2019-05-26T05:30:30.216Z,989.22
2019-05-26T05:31:30.099Z,989.27
2019-05-26T05:32:32.870Z,989.26
2019-05-26T05:33:29.938Z,989.33
2019-05-26T05:34:29.851Z,989.22
2019-05-26T05:35:29.746Z,989.21
2019-05-26T05:36:29.674Z,989.23
2019-05-26T05:37:29.566Z,989.17
2019-05-26T05:38:29.484Z,989.22
2019-05-26T05:39:29.393Z,989.21
2019-05-26T05:40:29.307Z,989.21
2019-05-26T05:41:29.218Z,989.20
2019-05-26T05:42:29.147Z,989.17
2019-05-26T05:43:29.037Z,989.13
2019-05-26T05:44:28.967Z,989.21
2019-05-26T05:45:28.864Z,989.16
2019-05-26T05:46:28.802Z,989.21
2019-05-26T05:47:28.692Z,989.21
2019-05-26T05:48:28.598Z,989.18
2019-05-26T05:49:28.533Z,989.25
2019-05-26T05:50:28.435Z,989.17
2019-05-26T05:51:28.341Z,989.22
2019-05-26T05:52:28.255Z,989.13
2019-05-26T05:53:28.166Z,989.20
2019-05-26T05:54:28.078Z,989.18
2019-05-26T05:55:27.995Z,989.17
2019-05-26T05:56:27.903Z,989.17
2019-05-26T05:57:27.813Z,989.16
2019-05-26T05:58:27.733Z,989.18
2019-05-26T05:59:27.637Z,989.19
2019-05-26T06:00:27.549Z,989.18
2019-05-26T06:01:27.468Z,989.19
2019-05-26T06:02:27.369Z,989.17
2019-05-26T06:03:27.285Z,989.20
2019-05-26T06:04:27.199Z,989.21
2019-05-26T06:05:27.115Z,989.25
2019-05-26T06:06:27.104Z,989.28
2019-05-26T06:07:26.944Z,989.25
2019-05-26T06:08:26.854Z,989.23
2019-05-26T06:09:26.779Z,989.25
2019-05-26T06:10:26.684Z,989.21
2019-05-26T06:11:26.591Z,989.25
2019-05-26T06:12:26.513Z,989.23
2019-05-26T06:13:26.416Z,989.16
2019-05-26T06:14:26.329Z,989.14
2019-05-26T06:15:26.238Z,989.19
2019-05-26T06:16:26.150Z,989.16
2019-05-26T06:17:26.064Z,989.16
2019-05-26T06:18:25.972Z,989.16
2019-05-26T06:19:25.887Z,989.20
2019-05-26T06:20:25.801Z,989.23
2019-05-26T06:21:25.718Z,989.16
2019-05-26T06:22:25.633Z,989.21
2019-05-26T06:23:25.537Z,989.22
2019-05-26T06:24:25.469Z,989.27
2019-05-26T06:25:25.412Z,989.15
2019-05-26T06:26:25.276Z,989.16
2019-05-26T06:27:25.188Z,989.14
2019-05-26T06:28:25.128Z,989.12
2019-05-26T06:29:25.016Z,989.10
2019-05-26T06:30:24.933Z,989.13
2019-05-26T06:31:24.852Z,989.07
2019-05-26T06:32:24.756Z,989.10
2019-05-26T06:33:24.666Z,989.13
2019-05-26T06:34:24.588Z,989.12
2019-05-26T06:35:24.495Z,989.13
2019-05-26T06:36:24.398Z,989.05
2019-05-26T06:37:24.320Z,989.12
2019-05-26T06:38:24.253Z,989.11
2019-05-26T06:39:24.152Z,989.13
2019-05-26T06:40:24.052Z,989.15
2019-05-26T06:41:32.993Z,989.22
2019-05-26T06:42:23.894Z,989.12
2019-05-26T06:43:23.796Z,989.17
2019-05-26T06:44:23.710Z,989.10
2019-05-26T06:45:23.633Z,989.20
2019-05-26T06:46:23.531Z,989.30
2019-05-26T06:47:23.452Z,989.21
2019-05-26T06:48:26.611Z,989.17
2019-05-26T06:49:23.274Z,989.20
2019-05-26T06:50:23.193Z,989.15
2019-05-26T06:51:23.096Z,989.23
2019-05-26T06:52:23.006Z,989.17
2019-05-26T06:53:22.924Z,989.23
2019-05-26T06:54:22.915Z,989.20
2019-05-26T06:55:22.766Z,989.31
2019-05-26T06:56:22.696Z,989.28
2019-05-26T06:57:22.576Z,989.25
2019-05-26T06:58:22.508Z,989.29
2019-05-26T06:59:22.424Z,989.30
2019-05-26T07:00:22.340Z,989.31
2019-05-26T07:01:22.232Z,989.29
2019-05-26T07:02:22.162Z,989.22
2019-05-26T07:03:22.121Z,989.24
2019-05-26T07:04:21.969Z,989.16
2019-05-26T07:05:21.885Z,989.20
2019-05-26T07:06:21.798Z,989.15
2019-05-26T07:07:21.712Z,989.20
2019-05-26T07:08:21.623Z,989.08
2019-05-26T07:09:21.542Z,989.15
2019-05-26T07:10:21.456Z,989.08
2019-05-26T07:11:21.386Z,989.10
2019-05-26T07:12:21.278Z,989.25
2019-05-26T07:13:21.210Z,989.20
2019-05-26T07:14:21.108Z,989.34
2019-05-26T07:15:21.022Z,989.23
2019-05-26T07:16:36.915Z,989.20
2019-05-26T07:17:20.866Z,989.26
2019-05-26T07:18:20.764Z,989.21
2019-05-26T07:19:20.695Z,989.24
2019-05-26T07:20:20.602Z,989.29
2019-05-26T07:21:20.499Z,989.21
2019-05-26T07:22:20.429Z,989.26
2019-05-26T07:23:20.330Z,989.20
2019-05-26T07:24:20.244Z,989.20
2019-05-26T07:25:20.162Z,989.26
2019-05-26T07:26:20.070Z,989.34
2019-05-26T07:27:19.986Z,989.12
2019-05-26T07:28:19.900Z,989.22
2019-05-26T07:29:19.824Z,989.23
2019-05-26T07:30:23.331Z,989.23
2019-05-26T07:31:19.653Z,989.28
2019-05-26T07:32:19.561Z,989.13
2019-05-26T07:33:19.469Z,989.20
2019-05-26T07:34:19.381Z,989.37
2019-05-26T07:35:19.294Z,989.20
2019-05-26T07:36:19.225Z,989.34
2019-05-26T07:37:19.137Z,989.18
2019-05-26T07:38:19.069Z,989.16
2019-05-26T07:39:18.952Z,989.11
2019-05-26T07:40:18.877Z,989.06
2019-05-26T07:41:18.785Z,989.07
2019-05-26T07:42:18.699Z,989.14
2019-05-26T07:43:18.609Z,989.06
2019-05-26T07:44:18.526Z,989.08
2019-05-26T07:45:18.513Z,989.09
2019-05-26T07:46:18.345Z,989.02
2019-05-26T07:47:18.273Z,989.02
2019-05-26T07:48:18.181Z,988.97
2019-05-26T07:49:18.097Z,988.98
2019-05-26T07:50:18.014Z,988.97
2019-05-26T07:51:17.927Z,989.02
2019-05-26T07:52:17.841Z,988.98
2019-05-26T07:53:17.751Z,988.98
2019-05-26T07:54:25.472Z,989.03
2019-05-26T07:55:17.582Z,989.02
2019-05-26T07:56:17.491Z,989.00
2019-05-26T07:57:17.405Z,988.99
2019-05-26T07:58:17.331Z,988.96
2019-05-26T07:59:17.242Z,988.96
2019-05-26T08:00:17.159Z,988.96
2019-05-26T08:01:17.072Z,988.85
2019-05-26T08:02:17.007Z,988.91
2019-05-26T08:03:16.903Z,988.90
2019-05-26T08:04:16.814Z,988.93
2019-05-26T08:05:16.726Z,988.97
2019-05-26T08:06:16.670Z,988.96
2019-05-26T08:07:16.553Z,988.87
2019-05-26T08:08:16.486Z,988.94
2019-05-26T08:09:16.383Z,988.91
2019-05-26T08:10:16.307Z,988.89
2019-05-26T08:11:16.218Z,988.95
2019-05-26T08:12:26.002Z,988.92
2019-05-26T08:13:16.081Z,988.95
2019-05-26T08:14:15.955Z,988.87
2019-05-26T08:15:15.872Z,988.87
2019-05-26T08:16:15.788Z,988.91
2019-05-26T08:17:15.704Z,988.89
2019-05-26T08:18:15.619Z,988.91
2019-05-26T08:19:15.561Z,989.00
2019-05-26T08:20:15.457Z,988.84
2019-05-26T08:21:15.353Z,988.85
2019-05-26T08:22:15.270Z,988.93
2019-05-26T08:23:15.182Z,988.94
2019-05-26T08:24:15.103Z,988.81
2019-05-26T08:25:15.020Z,988.94
2019-05-26T08:26:14.938Z,988.84
2019-05-26T08:27:14.860Z,988.79
2019-05-26T08:28:14.774Z,988.90
2019-05-26T08:29:14.674Z,988.80
2019-05-26T08:30:14.616Z,988.85
2019-05-26T08:31:14.495Z,988.92
2019-05-26T08:32:15.141Z,988.82
2019-05-26T08:33:14.339Z,988.88
2019-05-26T08:34:14.254Z,988.84
2019-05-26T08:35:14.166Z,988.81
2019-05-26T08:36:14.068Z,988.82
2019-05-26T08:37:13.990Z,988.86
2019-05-26T08:38:13.914Z,988.84
2019-05-26T08:39:13.823Z,988.77
2019-05-26T08:40:13.775Z,988.72
2019-05-26T08:41:13.658Z,988.73
2019-05-26T08:42:26.367Z,988.79
2019-05-26T08:43:13.489Z,988.76
2019-05-26T08:44:13.396Z,988.67
2019-05-26T08:45:13.313Z,988.68
2019-05-26T08:46:13.252Z,988.68
2019-05-26T08:47:13.152Z,988.63
2019-05-26T08:48:13.076Z,988.65
2019-05-26T08:49:12.960Z,988.59
2019-05-26T08:50:12.883Z,988.75
2019-05-26T08:51:12.798Z,988.69
2019-05-26T08:52:12.708Z,988.64
2019-05-26T08:53:12.650Z,988.60
2019-05-26T08:54:12.550Z,988.57
2019-05-26T08:55:12.466Z,988.53
2019-05-26T08:56:12.370Z,988.58
2019-05-26T08:57:12.300Z,988.56
2019-05-26T08:58:12.194Z,988.72
2019-05-26T08:59:12.121Z,988.68
2019-05-26T09:00:12.037Z,988.58
2019-05-26T09:01:11.958Z,988.64
2019-05-26T09:02:11.882Z,988.60
2019-05-26T09:03:11.782Z,988.62
2019-05-26T09:04:11.703Z,988.65
2019-05-26T09:05:11.625Z,988.61
2019-05-26T09:06:11.514Z,988.62
2019-05-26T09:07:11.431Z,988.61
2019-05-26T09:08:11.353Z,988.66
2019-05-26T09:09:11.263Z,988.64
2019-05-26T09:10:11.196Z,988.66
2019-05-26T09:11:11.102Z,988.77
2019-05-26T09:12:11.023Z,988.66
2019-05-26T09:13:10.935Z,988.58
2019-05-26T09:14:10.835Z,988.59
2019-05-26T09:15:10.750Z,988.65
2019-05-26T09:16:10.671Z,988.54
2019-05-26T09:17:10.583Z,988.53
2019-05-26T09:18:10.505Z,988.57
2019-05-26T09:19:10.419Z,988.65
2019-05-26T09:20:11.609Z,988.59
2019-05-26T09:21:10.254Z,988.61
2019-05-26T09:22:10.161Z,988.62
2019-05-26T09:23:10.073Z,988.56
2019-05-26T09:24:09.997Z,988.58
2019-05-26T09:25:09.909Z,988.55
2019-05-26T09:26:09.825Z,988.54
2019-05-26T09:27:09.753Z,988.63
2019-05-26T09:28:09.649Z,988.70
2019-05-26T09:29:09.592Z,988.65
2019-05-26T09:30:09.508Z,988.62
2019-05-26T09:31:09.402Z,988.62
2019-05-26T09:32:09.340Z,988.61
2019-05-26T09:33:09.244Z,988.61
2019-05-26T09:34:09.146Z,988.58
2019-05-26T09:35:09.084Z,988.54
2019-05-26T09:36:08.976Z,988.53
2019-05-26T09:37:08.888Z,988.53
2019-05-26T09:38:08.811Z,988.50
2019-05-26T09:39:08.735Z,988.61
2019-05-26T09:40:08.641Z,988.59
2019-05-26T09:41:08.555Z,988.60
2019-05-26T09:42:08.472Z,988.51
2019-05-26T09:43:16.090Z,988.55
2019-05-26T09:44:08.313Z,988.54
2019-05-26T09:45:08.233Z,988.55
2019-05-26T09:46:08.133Z,988.60
2019-05-26T09:47:08.081Z,988.55
2019-05-26T09:48:07.981Z,988.55
2019-05-26T09:49:07.886Z,988.55
2019-05-26T09:50:07.800Z,988.54
2019-05-26T09:51:07.729Z,988.64
2019-05-26T09:52:07.636Z,988.51
2019-05-26T09:53:07.548Z,988.55
2019-05-26T09:54:07.498Z,988.53
2019-05-26T09:55:07.391Z,988.56
2019-05-26T09:56:07.302Z,988.52
2019-05-26T09:57:07.211Z,988.48
2019-05-26T09:58:07.134Z,988.53
2019-05-26T09:59:07.056Z,988.61
2019-05-26T10:00:06.960Z,988.49
2019-05-26T10:01:06.894Z,988.50
2019-05-26T10:02:06.796Z,988.63
2019-05-26T10:03:06.705Z,988.52
2019-05-26T10:04:06.638Z,988.71
2019-05-26T10:05:06.540Z,988.57
2019-05-26T10:06:06.525Z,988.55
2019-05-26T10:07:06.386Z,988.56
2019-05-26T10:08:06.295Z,988.69
2019-05-26T10:09:06.203Z,988.52
2019-05-26T10:10:06.121Z,988.46
2019-05-26T10:11:06.037Z,988.50
2019-05-26T10:12:05.983Z,988.38
2019-05-26T10:13:05.893Z,988.47
2019-05-26T10:14:05.786Z,988.47
2019-05-26T10:15:05.706Z,988.39
2019-05-26T10:16:05.635Z,988.41
2019-05-26T10:17:05.541Z,988.49
2019-05-26T10:18:05.483Z,988.53
2019-05-26T10:19:05.382Z,988.40
2019-05-26T10:20:05.279Z,988.44
2019-05-26T10:21:05.203Z,988.37
2019-05-26T10:22:05.122Z,988.43
2019-05-26T10:23:05.064Z,988.45
2019-05-26T10:24:04.961Z,988.41
2019-05-26T10:25:04.865Z,988.43
2019-05-26T10:26:04.786Z,988.45
2019-05-26T10:27:04.701Z,988.55
2019-05-26T10:28:04.623Z,988.51
2019-05-26T10:29:04.542Z,988.49
2019-05-26T10:30:04.471Z,988.40
2019-05-26T10:31:04.359Z,988.48
2019-05-26T10:32:04.281Z,988.50
2019-05-26T10:33:04.204Z,988.45
2019-05-26T10:34:04.131Z,988.42
2019-05-26T10:35:04.097Z,988.43
2019-05-26T10:36:03.962Z,988.44
2019-05-26T10:37:03.892Z,988.38
2019-05-26T10:38:03.780Z,988.38
2019-05-26T10:39:03.723Z,988.43
2019-05-26T10:40:03.618Z,988.42
2019-05-26T10:41:03.541Z,988.39
2019-05-26T10:42:03.457Z,988.45
2019-05-26T10:43:03.357Z,988.41
2019-05-26T10:44:03.287Z,988.61
2019-05-26T10:45:03.201Z,988.57
2019-05-26T10:46:03.124Z,988.41
2019-05-26T10:47:03.026Z,988.52
2019-05-26T10:48:02.967Z,988.52
2019-05-26T10:49:02.865Z,988.59
2019-05-26T10:50:02.786Z,988.62
2019-05-26T10:51:02.711Z,988.52
2019-05-26T10:52:02.618Z,988.54
2019-05-26T10:53:02.526Z,988.56
2019-05-26T10:54:02.469Z,988.46
2019-05-26T10:55:02.361Z,988.47
2019-05-26T10:56:02.291Z,988.36
2019-05-26T10:57:02.196Z,988.43
2019-05-26T10:58:02.113Z,988.38
2019-05-26T10:59:02.036Z,988.36
2019-05-26T11:00:02.199Z,988.36
2019-05-26T11:01:01.943Z,988.36
2019-05-26T11:02:01.786Z,988.31
2019-05-26T11:03:01.696Z,988.30
2019-05-26T11:04:01.631Z,988.43
2019-05-26T11:05:01.539Z,988.33
2019-05-26T11:06:01.453Z,988.25
2019-05-26T11:07:01.364Z,988.30
2019-05-26T11:08:01.309Z,988.27
2019-05-26T11:09:01.202Z,988.26
2019-05-26T11:10:01.121Z,988.19
2019-05-26T11:11:01.040Z,988.28
2019-05-26T11:12:00.954Z,988.22
2019-05-26T11:13:00.867Z,988.28
2019-05-26T11:14:03.217Z,988.25
2019-05-26T11:15:00.710Z,988.16
2019-05-26T11:16:00.620Z,988.19
2019-05-26T11:17:00.543Z,988.20
2019-05-26T11:18:00.466Z,988.23
2019-05-26T11:19:00.404Z,988.13
2019-05-26T11:20:00.293Z,988.15
2019-05-26T11:21:00.225Z,988.22
2019-05-26T11:22:00.132Z,988.24
2019-05-26T11:23:00.040Z,988.28
2019-05-26T11:23:59.969Z,988.12
2019-05-26T11:24:59.886Z,988.12
2019-05-26T11:25:59.796Z,988.08
2019-05-26T11:27:08.305Z,988.09
2019-05-26T11:27:59.632Z,988.07
2019-05-26T11:28:59.556Z,988.03
2019-05-26T11:29:59.483Z,988.21
2019-05-26T11:30:59.390Z,988.09
2019-05-26T11:31:59.305Z,988.11
2019-05-26T11:32:59.756Z,988.11
2019-05-26T11:33:59.151Z,988.02
2019-05-26T11:35:01.813Z,988.03
2019-05-26T11:35:58.991Z,988.04
2019-05-26T11:36:58.887Z,987.95
2019-05-26T11:37:58.814Z,987.96
2019-05-26T11:38:58.733Z,987.91
2019-05-26T11:39:58.690Z,987.94
2019-05-26T11:40:59.296Z,987.91
2019-05-26T11:42:12.226Z,987.98
2019-05-26T11:42:58.388Z,987.99
2019-05-26T11:43:58.318Z,988.02
2019-05-26T11:44:58.242Z,987.95
2019-05-26T11:45:58.147Z,987.92
2019-05-26T11:46:58.067Z,987.87
2019-05-26T11:47:57.983Z,987.99
2019-05-26T11:48:57.919Z,987.87
2019-05-26T11:49:57.849Z,987.95
2019-05-26T11:50:57.735Z,987.88
2019-05-26T11:51:57.653Z,987.87
2019-05-26T11:52:57.571Z,987.89
2019-05-26T11:53:57.504Z,988.00
2019-05-26T11:54:57.426Z,987.95
2019-05-26T11:55:57.335Z,987.99
2019-05-26T11:56:57.245Z,987.84
2019-05-26T11:57:57.163Z,987.76
2019-05-26T11:58:57.748Z,987.68
2019-05-26T11:59:57.005Z,987.70
2019-05-26T12:00:56.924Z,987.72
2019-05-26T12:01:56.838Z,987.74
2019-05-26T12:02:59.791Z,987.80
2019-05-26T12:03:56.673Z,987.80
2019-05-26T12:04:56.595Z,987.87
2019-05-26T12:05:56.502Z,988.05
2019-05-26T12:06:56.429Z,987.92
2019-05-26T12:07:56.349Z,987.94
2019-05-26T12:08:56.287Z,987.93
2019-05-26T12:09:56.182Z,988.00
2019-05-26T12:10:58.360Z,987.76
2019-05-26T12:11:56.021Z,987.84
2019-05-26T12:12:55.945Z,987.92
2019-05-26T12:13:55.857Z,987.70
2019-05-26T12:14:55.769Z,987.70
2019-05-26T12:15:55.691Z,987.83
2019-05-26T12:16:55.616Z,987.97
2019-05-26T12:17:55.532Z,987.76
2019-05-26T12:18:55.447Z,987.88
2019-05-26T12:19:55.365Z,987.80
2019-05-26T12:20:55.287Z,987.87
2019-05-26T12:21:55.214Z,987.75
2019-05-26T12:22:55.107Z,987.76
2019-05-26T12:23:55.238Z,987.74
2019-05-26T12:24:54.964Z,987.74
2019-05-26T12:25:54.887Z,987.72
2019-05-26T12:26:54.788Z,987.69